sensor_id;sensor_type;location;lat;lon;timestamp;temperature;humidity
84335;DHT22;74512;51.190;3.198;2024-01-11T00:01:25;1.40;1.00
84335;DHT22;74512;51.190;3.198;2024-01-11T00:03:51;1.50;1.00
84335;DHT22;74512;51.190;3.198;2024-01-11T00:06:16;1.90;1.00
84335;DHT22;74512;51.190;3.198;2024-01-11T00:08:42;1.50;1.00
84335;DHT22;74512;51.190;3.198;2024-01-11T00:11:08;1.40;1.00
84335;DHT22;74512;51.190;3.198;2024-01-11T00:13:34;1.40;1.00
84335;DHT22;74512;51.190;3.198;2024-01-11T00:15:59;1.70;1.00
84335;DHT22;74512;51.190;3.198;2024-01-11T00:18:25;1.50;1.00
84335;DHT22;74512;51.190;3.198;2024-01-11T00:20:51;1.50;1.00
84335;DHT22;74512;51.190;3.198;2024-01-11T00:23:17;1.20;1.00
84335;DHT22;74512;51.190;3.198;2024-01-11T00:25:42;1.20;1.00
84335;DHT22;74512;51.190;3.198;2024-01-11T00:28:08;1.30;1.00
84335;DHT22;74512;51.190;3.198;2024-01-11T00:30:34;1.30;1.00
84335;DHT22;74512;51.190;3.198;2024-01-11T00:32:59;1.50;1.00
84335;DHT22;74512;51.190;3.198;2024-01-11T00:35:25;1.70;1.00
84335;DHT22;74512;51.190;3.198;2024-01-11T00:37:51;1.70;1.00
84335;DHT22;74512;51.190;3.198;2024-01-11T00:40:16;1.80;1.00
84335;DHT22;74512;51.190;3.198;2024-01-11T00:42:42;1.70;1.00
84335;DHT22;74512;51.190;3.198;2024-01-11T00:45:08;1.50;1.00
84335;DHT22;74512;51.190;3.198;2024-01-11T00:47:33;1.40;1.00
84335;DHT22;74512;51.190;3.198;2024-01-11T00:49:59;1.30;1.00
84335;DHT22;74512;51.190;3.198;2024-01-11T00:52:25;1.10;1.00
84335;DHT22;74512;51.190;3.198;2024-01-11T00:54:50;1.00;1.00
84335;DHT22;74512;51.190;3.198;2024-01-11T00:57:16;0.70;1.00
84335;DHT22;74512;51.190;3.198;2024-01-11T00:59:42;0.80;1.00
84335;DHT22;74512;51.190;3.198;2024-01-11T01:02:07;0.80;1.00
84335;DHT22;74512;51.190;3.198;2024-01-11T01:04:36;0.80;1.00
84335;DHT22;74512;51.190;3.198;2024-01-11T01:07:02;1.10;1.00
84335;DHT22;74512;51.190;3.198;2024-01-11T01:09:28;1.40;1.00
84335;DHT22;74512;51.190;3.198;2024-01-11T01:11:54;1.10;1.00
84335;DHT22;74512;51.190;3.198;2024-01-11T01:14:19;1.20;1.00
84335;DHT22;74512;51.190;3.198;2024-01-11T01:16:45;1.10;1.00
84335;DHT22;74512;51.190;3.198;2024-01-11T01:19:11;1.00;1.00
84335;DHT22;74512;51.190;3.198;2024-01-11T01:21:36;1.10;1.00
84335;DHT22;74512;51.190;3.198;2024-01-11T01:24:03;1.20;1.00
84335;DHT22;74512;51.190;3.198;2024-01-11T01:26:28;1.30;1.00
84335;DHT22;74512;51.190;3.198;2024-01-11T01:28:54;1.20;1.00
84335;DHT22;74512;51.190;3.198;2024-01-11T01:31:21;1.30;1.00
84335;DHT22;74512;51.190;3.198;2024-01-11T01:33:46;1.50;1.00
84335;DHT22;74512;51.190;3.198;2024-01-11T01:36:12;1.60;1.00
84335;DHT22;74512;51.190;3.198;2024-01-11T01:38:37;1.70;1.00
84335;DHT22;74512;51.190;3.198;2024-01-11T01:41:03;1.40;1.00
84335;DHT22;74512;51.190;3.198;2024-01-11T01:43:29;1.40;1.00
84335;DHT22;74512;51.190;3.198;2024-01-11T01:45:55;1.30;1.00
84335;DHT22;74512;51.190;3.198;2024-01-11T01:48:21;1.40;1.00
84335;DHT22;74512;51.190;3.198;2024-01-11T01:50:47;1.30;1.00
84335;DHT22;74512;51.190;3.198;2024-01-11T01:53:23;1.50;1.00
84335;DHT22;74512;51.190;3.198;2024-01-11T01:55:50;1.40;1.00
84335;DHT22;74512;51.190;3.198;2024-01-11T01:58:17;1.00;1.00
84335;DHT22;74512;51.190;3.198;2024-01-11T02:00:45;1.00;1.00
84335;DHT22;74512;51.190;3.198;2024-01-11T02:03:11;1.20;1.00
84335;DHT22;74512;51.190;3.198;2024-01-11T02:05:37;1.00;1.00
84335;DHT22;74512;51.190;3.198;2024-01-11T02:08:06;1.00;1.00
84335;DHT22;74512;51.190;3.198;2024-01-11T02:10:35;1.00;1.00
84335;DHT22;74512;51.190;3.198;2024-01-11T02:13:04;1.30;1.00
84335;DHT22;74512;51.190;3.198;2024-01-11T02:15:30;1.10;1.00
84335;DHT22;74512;51.190;3.198;2024-01-11T02:17:56;1.20;1.00
84335;DHT22;74512;51.190;3.198;2024-01-11T02:20:21;1.60;1.00
84335;DHT22;74512;51.190;3.198;2024-01-11T02:22:52;1.40;1.00
84335;DHT22;74512;51.190;3.198;2024-01-11T02:25:18;1.30;1.00
84335;DHT22;74512;51.190;3.198;2024-01-11T02:27:48;1.50;1.00
84335;DHT22;74512;51.190;3.198;2024-01-11T02:30:15;1.40;1.00
84335;DHT22;74512;51.190;3.198;2024-01-11T02:32:45;1.30;1.00
84335;DHT22;74512;51.190;3.198;2024-01-11T02:35:13;1.60;1.00
84335;DHT22;74512;51.190;3.198;2024-01-11T02:37:40;1.80;1.00
84335;DHT22;74512;51.190;3.198;2024-01-11T02:40:09;1.70;1.00
84335;DHT22;74512;51.190;3.198;2024-01-11T02:42:35;1.70;1.00
84335;DHT22;74512;51.190;3.198;2024-01-11T02:45:03;1.90;1.00
84335;DHT22;74512;51.190;3.198;2024-01-11T02:47:29;1.80;1.00
84335;DHT22;74512;51.190;3.198;2024-01-11T02:49:54;1.60;1.00
84335;DHT22;74512;51.190;3.198;2024-01-11T02:52:20;1.80;1.00
84335;DHT22;74512;51.190;3.198;2024-01-11T02:54:46;1.50;1.00
84335;DHT22;74512;51.190;3.198;2024-01-11T02:57:11;1.30;1.00
84335;DHT22;74512;51.190;3.198;2024-01-11T02:59:37;1.40;1.00
84335;DHT22;74512;51.190;3.198;2024-01-11T03:02:03;0.90;1.00
84335;DHT22;74512;51.190;3.198;2024-01-11T03:04:29;0.70;1.00
84335;DHT22;74512;51.190;3.198;2024-01-11T03:06:55;0.50;1.00
84335;DHT22;74512;51.190;3.198;2024-01-11T03:09:20;0.70;1.00
84335;DHT22;74512;51.190;3.198;2024-01-11T03:11:46;1.10;1.00
84335;DHT22;74512;51.190;3.198;2024-01-11T03:14:12;1.10;1.00
84335;DHT22;74512;51.190;3.198;2024-01-11T03:16:38;1.10;1.00
84335;DHT22;74512;51.190;3.198;2024-01-11T03:19:05;1.10;1.00
84335;DHT22;74512;51.190;3.198;2024-01-11T03:21:31;1.40;1.00
84335;DHT22;74512;51.190;3.198;2024-01-11T03:23:56;1.70;1.00
84335;DHT22;74512;51.190;3.198;2024-01-11T03:26:22;1.50;1.00
84335;DHT22;74512;51.190;3.198;2024-01-11T03:28:48;1.30;1.00
84335;DHT22;74512;51.190;3.198;2024-01-11T03:31:14;1.20;1.00
84335;DHT22;74512;51.190;3.198;2024-01-11T03:33:40;1.20;1.00
84335;DHT22;74512;51.190;3.198;2024-01-11T03:36:10;1.10;1.00
84335;DHT22;74512;51.190;3.198;2024-01-11T03:38:36;1.20;1.00
84335;DHT22;74512;51.190;3.198;2024-01-11T03:41:02;1.20;1.00
84335;DHT22;74512;51.190;3.198;2024-01-11T03:43:28;1.10;1.00
84335;DHT22;74512;51.190;3.198;2024-01-11T03:45:53;1.10;1.00
84335;DHT22;74512;51.190;3.198;2024-01-11T03:48:19;1.10;1.00
84335;DHT22;74512;51.190;3.198;2024-01-11T03:50:45;1.30;1.00
84335;DHT22;74512;51.190;3.198;2024-01-11T03:53:10;1.20;1.00
84335;DHT22;74512;51.190;3.198;2024-01-11T03:55:36;1.20;1.00
84335;DHT22;74512;51.190;3.198;2024-01-11T03:58:02;1.30;1.00
84335;DHT22;74512;51.190;3.198;2024-01-11T04:00:27;1.30;1.00
84335;DHT22;74512;51.190;3.198;2024-01-11T04:02:53;1.00;1.00
84335;DHT22;74512;51.190;3.198;2024-01-11T04:05:19;1.00;1.00
84335;DHT22;74512;51.190;3.198;2024-01-11T04:07:44;1.40;1.00
84335;DHT22;74512;51.190;3.198;2024-01-11T04:10:10;1.30;1.00
84335;DHT22;74512;51.190;3.198;2024-01-11T04:12:36;1.30;1.00
84335;DHT22;74512;51.190;3.198;2024-01-11T04:15:03;1.40;1.00
84335;DHT22;74512;51.190;3.198;2024-01-11T04:17:28;1.50;1.00
84335;DHT22;74512;51.190;3.198;2024-01-11T04:19:54;1.40;1.00
84335;DHT22;74512;51.190;3.198;2024-01-11T04:22:20;1.60;1.00
84335;DHT22;74512;51.190;3.198;2024-01-11T04:24:45;1.70;1.00
84335;DHT22;74512;51.190;3.198;2024-01-11T04:27:11;1.60;1.00
84335;DHT22;74512;51.190;3.198;2024-01-11T04:29:37;1.50;1.00
84335;DHT22;74512;51.190;3.198;2024-01-11T04:32:03;1.20;1.00
84335;DHT22;74512;51.190;3.198;2024-01-11T04:34:28;1.10;1.00
84335;DHT22;74512;51.190;3.198;2024-01-11T04:36:54;1.30;1.00
84335;DHT22;74512;51.190;3.198;2024-01-11T04:39:20;1.40;1.00
84335;DHT22;74512;51.190;3.198;2024-01-11T04:41:46;1.30;1.00
84335;DHT22;74512;51.190;3.198;2024-01-11T04:44:11;1.50;1.00
84335;DHT22;74512;51.190;3.198;2024-01-11T04:46:37;1.70;1.00
84335;DHT22;74512;51.190;3.198;2024-01-11T04:49:02;1.70;1.00
84335;DHT22;74512;51.190;3.198;2024-01-11T04:51:28;1.90;1.00
84335;DHT22;74512;51.190;3.198;2024-01-11T04:53:54;1.60;1.00
84335;DHT22;74512;51.190;3.198;2024-01-11T04:56:20;1.40;1.00
84335;DHT22;74512;51.190;3.198;2024-01-11T04:58:45;1.20;1.00
84335;DHT22;74512;51.190;3.198;2024-01-11T05:01:15;1.30;1.00
84335;DHT22;74512;51.190;3.198;2024-01-11T05:03:46;1.10;1.00
84335;DHT22;74512;51.190;3.198;2024-01-11T05:06:18;1.00;1.00
84335;DHT22;74512;51.190;3.198;2024-01-11T05:08:48;1.00;1.00
84335;DHT22;74512;51.190;3.198;2024-01-11T05:11:18;0.90;1.00
84335;DHT22;74512;51.190;3.198;2024-01-11T05:13:44;1.40;1.00
84335;DHT22;74512;51.190;3.198;2024-01-11T05:16:24;1.30;1.00
84335;DHT22;74512;51.190;3.198;2024-01-11T05:18:50;1.30;1.00
84335;DHT22;74512;51.190;3.198;2024-01-11T05:21:17;1.40;1.00
84335;DHT22;74512;51.190;3.198;2024-01-11T05:23:43;1.40;1.00
84335;DHT22;74512;51.190;3.198;2024-01-11T05:26:13;1.70;1.00
84335;DHT22;74512;51.190;3.198;2024-01-11T05:28:38;1.80;1.00
84335;DHT22;74512;51.190;3.198;2024-01-11T05:31:11;2.20;1.00
84335;DHT22;74512;51.190;3.198;2024-01-11T05:33:39;2.20;1.00
84335;DHT22;74512;51.190;3.198;2024-01-11T05:36:05;1.90;1.00
84335;DHT22;74512;51.190;3.198;2024-01-11T05:38:31;1.70;1.00
84335;DHT22;74512;51.190;3.198;2024-01-11T05:40:57;1.60;1.00
84335;DHT22;74512;51.190;3.198;2024-01-11T05:43:23;1.50;1.00
84335;DHT22;74512;51.190;3.198;2024-01-11T05:45:49;1.40;1.00
84335;DHT22;74512;51.190;3.198;2024-01-11T05:48:15;1.80;1.00
84335;DHT22;74512;51.190;3.198;2024-01-11T05:50:41;1.70;1.00
84335;DHT22;74512;51.190;3.198;2024-01-11T05:53:07;1.40;1.00
84335;DHT22;74512;51.190;3.198;2024-01-11T05:55:33;1.30;1.00
84335;DHT22;74512;51.190;3.198;2024-01-11T05:58:00;1.00;1.00
84335;DHT22;74512;51.190;3.198;2024-01-11T06:00:25;0.80;1.00
84335;DHT22;74512;51.190;3.198;2024-01-11T06:02:51;1.10;1.00
84335;DHT22;74512;51.190;3.198;2024-01-11T06:05:16;1.20;1.00
84335;DHT22;74512;51.190;3.198;2024-01-11T06:07:42;1.00;1.00
84335;DHT22;74512;51.190;3.198;2024-01-11T06:10:08;1.20;1.00
84335;DHT22;74512;51.190;3.198;2024-01-11T06:12:35;1.20;1.00
84335;DHT22;74512;51.190;3.198;2024-01-11T06:15:01;1.10;1.00
84335;DHT22;74512;51.190;3.198;2024-01-11T06:17:27;1.20;1.00
84335;DHT22;74512;51.190;3.198;2024-01-11T06:19:53;1.40;1.00
84335;DHT22;74512;51.190;3.198;2024-01-11T06:22:20;1.20;1.00
84335;DHT22;74512;51.190;3.198;2024-01-11T06:24:45;1.30;1.00
84335;DHT22;74512;51.190;3.198;2024-01-11T06:27:11;1.30;1.00
84335;DHT22;74512;51.190;3.198;2024-01-11T06:29:37;1.70;1.00
84335;DHT22;74512;51.190;3.198;2024-01-11T06:32:02;1.50;1.00
84335;DHT22;74512;51.190;3.198;2024-01-11T06:34:28;1.40;1.00
84335;DHT22;74512;51.190;3.198;2024-01-11T06:36:54;1.40;1.00
84335;DHT22;74512;51.190;3.198;2024-01-11T06:39:20;1.60;1.00
84335;DHT22;74512;51.190;3.198;2024-01-11T06:41:46;1.40;1.00
84335;DHT22;74512;51.190;3.198;2024-01-11T06:44:12;1.50;1.00
84335;DHT22;74512;51.190;3.198;2024-01-11T06:46:37;1.80;1.00
84335;DHT22;74512;51.190;3.198;2024-01-11T06:49:07;2.10;1.00
84335;DHT22;74512;51.190;3.198;2024-01-11T06:51:32;2.10;1.00
84335;DHT22;74512;51.190;3.198;2024-01-11T06:53:59;1.60;1.00
84335;DHT22;74512;51.190;3.198;2024-01-11T06:56:25;1.70;1.00
84335;DHT22;74512;51.190;3.198;2024-01-11T06:58:51;1.70;1.00
84335;DHT22;74512;51.190;3.198;2024-01-11T07:01:17;1.80;1.00
84335;DHT22;74512;51.190;3.198;2024-01-11T07:03:43;2.00;1.00
84335;DHT22;74512;51.190;3.198;2024-01-11T07:06:08;2.20;1.00
84335;DHT22;74512;51.190;3.198;2024-01-11T07:08:35;2.00;1.00
84335;DHT22;74512;51.190;3.198;2024-01-11T07:11:01;1.70;1.00
84335;DHT22;74512;51.190;3.198;2024-01-11T07:13:30;1.90;1.00
84335;DHT22;74512;51.190;3.198;2024-01-11T07:15:57;2.00;1.00
84335;DHT22;74512;51.190;3.198;2024-01-11T07:18:24;2.10;1.00
84335;DHT22;74512;51.190;3.198;2024-01-11T07:20:50;2.40;1.00
84335;DHT22;74512;51.190;3.198;2024-01-11T07:23:16;2.50;1.00
84335;DHT22;74512;51.190;3.198;2024-01-11T07:25:42;2.50;1.00
84335;DHT22;74512;51.190;3.198;2024-01-11T07:28:08;2.70;1.00
84335;DHT22;74512;51.190;3.198;2024-01-11T07:30:34;2.30;1.00
84335;DHT22;74512;51.190;3.198;2024-01-11T07:33:00;2.40;1.00
84335;DHT22;74512;51.190;3.198;2024-01-11T07:35:25;2.50;1.00
84335;DHT22;74512;51.190;3.198;2024-01-11T07:37:51;2.60;1.00
84335;DHT22;74512;51.190;3.198;2024-01-11T07:40:17;2.40;1.00
84335;DHT22;74512;51.190;3.198;2024-01-11T07:42:43;2.40;1.00
84335;DHT22;74512;51.190;3.198;2024-01-11T07:45:09;2.40;1.00
84335;DHT22;74512;51.190;3.198;2024-01-11T07:47:38;2.50;1.00
84335;DHT22;74512;51.190;3.198;2024-01-11T07:50:08;2.50;1.00
84335;DHT22;74512;51.190;3.198;2024-01-11T07:52:38;2.10;1.00
84335;DHT22;74512;51.190;3.198;2024-01-11T07:55:04;2.20;1.00
84335;DHT22;74512;51.190;3.198;2024-01-11T07:57:34;2.20;1.00
84335;DHT22;74512;51.190;3.198;2024-01-11T08:00:00;2.30;1.00
84335;DHT22;74512;51.190;3.198;2024-01-11T08:02:26;2.30;1.00
84335;DHT22;74512;51.190;3.198;2024-01-11T08:04:51;2.40;1.00
84335;DHT22;74512;51.190;3.198;2024-01-11T08:07:17;2.70;1.00
84335;DHT22;74512;51.190;3.198;2024-01-11T08:09:43;2.70;1.00
84335;DHT22;74512;51.190;3.198;2024-01-11T08:12:14;2.30;1.00
84335;DHT22;74512;51.190;3.198;2024-01-11T08:14:40;2.30;1.00
84335;DHT22;74512;51.190;3.198;2024-01-11T08:17:09;2.50;1.00
84335;DHT22;74512;51.190;3.198;2024-01-11T08:19:35;2.40;1.00
84335;DHT22;74512;51.190;3.198;2024-01-11T08:22:01;2.30;1.00
84335;DHT22;74512;51.190;3.198;2024-01-11T08:24:27;2.30;1.00
84335;DHT22;74512;51.190;3.198;2024-01-11T08:26:53;2.50;1.00
84335;DHT22;74512;51.190;3.198;2024-01-11T08:29:18;2.90;1.00
84335;DHT22;74512;51.190;3.198;2024-01-11T08:31:45;3.00;1.00
84335;DHT22;74512;51.190;3.198;2024-01-11T08:34:11;3.00;1.00
84335;DHT22;74512;51.190;3.198;2024-01-11T08:36:37;2.60;1.00
84335;DHT22;74512;51.190;3.198;2024-01-11T08:39:04;3.00;1.00
84335;DHT22;74512;51.190;3.198;2024-01-11T08:41:36;2.80;1.00
84335;DHT22;74512;51.190;3.198;2024-01-11T08:44:03;3.10;1.00
84335;DHT22;74512;51.190;3.198;2024-01-11T08:46:31;3.20;1.00
84335;DHT22;74512;51.190;3.198;2024-01-11T08:48:59;3.20;1.00
84335;DHT22;74512;51.190;3.198;2024-01-11T08:51:24;3.00;1.00
84335;DHT22;74512;51.190;3.198;2024-01-11T08:53:50;3.00;1.00
84335;DHT22;74512;51.190;3.198;2024-01-11T08:56:17;3.00;1.00
84335;DHT22;74512;51.190;3.198;2024-01-11T08:58:42;3.00;1.00
84335;DHT22;74512;51.190;3.198;2024-01-11T09:01:08;3.30;1.00
84335;DHT22;74512;51.190;3.198;2024-01-11T09:03:34;3.40;1.00
84335;DHT22;74512;51.190;3.198;2024-01-11T09:06:02;3.20;1.00
84335;DHT22;74512;51.190;3.198;2024-01-11T09:08:27;3.30;1.00
84335;DHT22;74512;51.190;3.198;2024-01-11T09:10:53;3.20;1.00
84335;DHT22;74512;51.190;3.198;2024-01-11T09:13:19;3.20;1.00
84335;DHT22;74512;51.190;3.198;2024-01-11T09:15:45;3.00;1.00
84335;DHT22;74512;51.190;3.198;2024-01-11T09:18:10;3.00;1.00
84335;DHT22;74512;51.190;3.198;2024-01-11T09:20:36;3.00;1.00
84335;DHT22;74512;51.190;3.198;2024-01-11T09:23:02;2.70;1.00
84335;DHT22;74512;51.190;3.198;2024-01-11T09:25:32;2.90;1.00
84335;DHT22;74512;51.190;3.198;2024-01-11T09:27:57;3.00;1.00
84335;DHT22;74512;51.190;3.198;2024-01-11T09:30:23;2.80;1.00
84335;DHT22;74512;51.190;3.198;2024-01-11T09:32:48;3.00;1.00
84335;DHT22;74512;51.190;3.198;2024-01-11T09:35:14;2.90;1.00
84335;DHT22;74512;51.190;3.198;2024-01-11T09:37:40;2.80;1.00
84335;DHT22;74512;51.190;3.198;2024-01-11T09:40:06;2.90;1.00
84335;DHT22;74512;51.190;3.198;2024-01-11T09:42:36;2.80;1.00
84335;DHT22;74512;51.190;3.198;2024-01-11T09:45:05;3.00;1.00
84335;DHT22;74512;51.190;3.198;2024-01-11T09:47:34;3.20;1.00
84335;DHT22;74512;51.190;3.198;2024-01-11T09:50:05;3.00;1.00
84335;DHT22;74512;51.190;3.198;2024-01-11T09:52:31;3.20;1.00
84335;DHT22;74512;51.190;3.198;2024-01-11T09:54:58;3.40;1.00
84335;DHT22;74512;51.190;3.198;2024-01-11T09:57:26;3.50;1.00
84335;DHT22;74512;51.190;3.198;2024-01-11T09:59:56;3.40;1.00
84335;DHT22;74512;51.190;3.198;2024-01-11T10:02:26;3.50;1.00
84335;DHT22;74512;51.190;3.198;2024-01-11T10:04:55;3.60;1.00
84335;DHT22;74512;51.190;3.198;2024-01-11T10:07:24;3.70;1.00
84335;DHT22;74512;51.190;3.198;2024-01-11T10:09:50;3.70;1.00
84335;DHT22;74512;51.190;3.198;2024-01-11T10:12:20;3.50;1.00
84335;DHT22;74512;51.190;3.198;2024-01-11T10:14:50;3.70;1.00
84335;DHT22;74512;51.190;3.198;2024-01-11T10:17:17;3.60;1.00
84335;DHT22;74512;51.190;3.198;2024-01-11T10:19:43;3.90;1.00
84335;DHT22;74512;51.190;3.198;2024-01-11T10:22:09;3.70;1.00
84335;DHT22;74512;51.190;3.198;2024-01-11T10:24:38;3.80;1.00
84335;DHT22;74512;51.190;3.198;2024-01-11T10:27:04;3.60;1.00
84335;DHT22;74512;51.190;3.198;2024-01-11T10:29:32;3.60;1.00
84335;DHT22;74512;51.190;3.198;2024-01-11T10:31:58;3.50;1.00
84335;DHT22;74512;51.190;3.198;2024-01-11T10:34:24;3.50;1.00
84335;DHT22;74512;51.190;3.198;2024-01-11T10:36:51;3.60;1.00
84335;DHT22;74512;51.190;3.198;2024-01-11T10:39:17;3.80;1.00
84335;DHT22;74512;51.190;3.198;2024-01-11T10:41:51;3.60;1.00
84335;DHT22;74512;51.190;3.198;2024-01-11T10:44:21;3.70;1.00
84335;DHT22;74512;51.190;3.198;2024-01-11T10:46:49;3.50;1.00
84335;DHT22;74512;51.190;3.198;2024-01-11T10:49:18;3.60;1.00
84335;DHT22;74512;51.190;3.198;2024-01-11T10:51:59;3.70;1.00
84335;DHT22;74512;51.190;3.198;2024-01-11T10:54:26;3.90;1.00
84335;DHT22;74512;51.190;3.198;2024-01-11T10:56:53;4.00;1.00
84335;DHT22;74512;51.190;3.198;2024-01-11T10:59:22;4.00;1.00
84335;DHT22;74512;51.190;3.198;2024-01-11T11:01:54;4.00;1.00
84335;DHT22;74512;51.190;3.198;2024-01-11T11:04:22;3.90;1.00
84335;DHT22;74512;51.190;3.198;2024-01-11T11:06:55;3.80;1.00
84335;DHT22;74512;51.190;3.198;2024-01-11T11:09:22;3.80;1.00
84335;DHT22;74512;51.190;3.198;2024-01-11T11:11:49;4.00;1.00
84335;DHT22;74512;51.190;3.198;2024-01-11T11:14:15;3.90;1.00
84335;DHT22;74512;51.190;3.198;2024-01-11T11:16:41;4.00;1.00
84335;DHT22;74512;51.190;3.198;2024-01-11T11:19:08;4.00;1.00
84335;DHT22;74512;51.190;3.198;2024-01-11T11:21:44;3.80;1.00
84335;DHT22;74512;51.190;3.198;2024-01-11T11:24:13;4.00;1.00
84335;DHT22;74512;51.190;3.198;2024-01-11T11:26:39;4.00;1.00
84335;DHT22;74512;51.190;3.198;2024-01-11T11:29:05;4.10;1.00
84335;DHT22;74512;51.190;3.198;2024-01-11T11:31:35;4.10;1.00
84335;DHT22;74512;51.190;3.198;2024-01-11T11:34:01;4.10;1.00
84335;DHT22;74512;51.190;3.198;2024-01-11T11:36:29;4.00;1.00
84335;DHT22;74512;51.190;3.198;2024-01-11T11:38:57;3.80;1.00
84335;DHT22;74512;51.190;3.198;2024-01-11T11:41:26;3.80;1.00
84335;DHT22;74512;51.190;3.198;2024-01-11T11:43:52;3.90;1.00
84335;DHT22;74512;51.190;3.198;2024-01-11T11:46:19;3.90;1.00
84335;DHT22;74512;51.190;3.198;2024-01-11T11:48:51;4.10;1.00
84335;DHT22;74512;51.190;3.198;2024-01-11T11:51:18;4.00;1.00
84335;DHT22;74512;51.190;3.198;2024-01-11T11:53:46;4.00;1.00
84335;DHT22;74512;51.190;3.198;2024-01-11T11:56:12;4.10;1.00
84335;DHT22;74512;51.190;3.198;2024-01-11T11:58:40;4.10;1.00
84335;DHT22;74512;51.190;3.198;2024-01-11T12:01:06;4.10;1.00
84335;DHT22;74512;51.190;3.198;2024-01-11T12:03:35;4.30;1.00
84335;DHT22;74512;51.190;3.198;2024-01-11T12:06:03;4.40;1.00
84335;DHT22;74512;51.190;3.198;2024-01-11T12:08:29;4.30;1.00
84335;DHT22;74512;51.190;3.198;2024-01-11T12:10:55;4.30;1.00
84335;DHT22;74512;51.190;3.198;2024-01-11T12:13:21;4.20;1.00
84335;DHT22;74512;51.190;3.198;2024-01-11T12:15:47;4.50;1.00
84335;DHT22;74512;51.190;3.198;2024-01-11T12:18:12;4.60;1.00
84335;DHT22;74512;51.190;3.198;2024-01-11T12:20:38;4.70;1.00
84335;DHT22;74512;51.190;3.198;2024-01-11T12:23:04;4.70;1.00
84335;DHT22;74512;51.190;3.198;2024-01-11T12:25:31;4.80;1.00
84335;DHT22;74512;51.190;3.198;2024-01-11T12:27:57;4.80;1.00
84335;DHT22;74512;51.190;3.198;2024-01-11T12:30:24;4.60;1.00
84335;DHT22;74512;51.190;3.198;2024-01-11T12:32:50;4.70;1.00
84335;DHT22;74512;51.190;3.198;2024-01-11T12:35:17;4.70;1.00
84335;DHT22;74512;51.190;3.198;2024-01-11T12:37:56;4.50;1.00
84335;DHT22;74512;51.190;3.198;2024-01-11T12:40:24;4.60;1.00
84335;DHT22;74512;51.190;3.198;2024-01-11T12:42:50;4.70;1.00
84335;DHT22;74512;51.190;3.198;2024-01-11T12:45:25;4.70;1.00
84335;DHT22;74512;51.190;3.198;2024-01-11T12:47:52;4.40;1.00
84335;DHT22;74512;51.190;3.198;2024-01-11T12:50:18;4.40;1.00
84335;DHT22;74512;51.190;3.198;2024-01-11T12:52:43;4.30;1.00
84335;DHT22;74512;51.190;3.198;2024-01-11T12:55:18;4.30;1.00
84335;DHT22;74512;51.190;3.198;2024-01-11T12:57:44;4.30;1.00
84335;DHT22;74512;51.190;3.198;2024-01-11T13:00:13;4.30;1.00
84335;DHT22;74512;51.190;3.198;2024-01-11T13:02:39;4.20;1.00
84335;DHT22;74512;51.190;3.198;2024-01-11T13:05:06;4.30;1.00
84335;DHT22;74512;51.190;3.198;2024-01-11T13:07:33;4.30;1.00
84335;DHT22;74512;51.190;3.198;2024-01-11T13:09:59;4.30;1.00
84335;DHT22;74512;51.190;3.198;2024-01-11T13:12:25;4.20;1.00
84335;DHT22;74512;51.190;3.198;2024-01-11T13:14:50;4.20;1.00
84335;DHT22;74512;51.190;3.198;2024-01-11T13:17:18;4.30;1.00
84335;DHT22;74512;51.190;3.198;2024-01-11T13:19:44;4.30;1.00
84335;DHT22;74512;51.190;3.198;2024-01-11T13:22:11;4.40;1.00
84335;DHT22;74512;51.190;3.198;2024-01-11T13:24:37;4.20;1.00
84335;DHT22;74512;51.190;3.198;2024-01-11T13:27:02;4.20;1.00
84335;DHT22;74512;51.190;3.198;2024-01-11T13:29:28;4.00;1.00
84335;DHT22;74512;51.190;3.198;2024-01-11T13:31:54;4.10;1.00
84335;DHT22;74512;51.190;3.198;2024-01-11T13:34:19;4.10;1.00
84335;DHT22;74512;51.190;3.198;2024-01-11T13:36:45;4.30;1.00
84335;DHT22;74512;51.190;3.198;2024-01-11T13:39:11;4.30;1.00
84335;DHT22;74512;51.190;3.198;2024-01-11T13:41:36;4.40;1.00
84335;DHT22;74512;51.190;3.198;2024-01-11T13:44:02;4.20;1.00
84335;DHT22;74512;51.190;3.198;2024-01-11T13:46:31;4.30;1.00
84335;DHT22;74512;51.190;3.198;2024-01-11T13:48:58;4.20;1.00
84335;DHT22;74512;51.190;3.198;2024-01-11T13:51:23;4.30;1.00
84335;DHT22;74512;51.190;3.198;2024-01-11T13:53:49;4.30;1.00
84335;DHT22;74512;51.190;3.198;2024-01-11T13:56:15;4.50;1.00
84335;DHT22;74512;51.190;3.198;2024-01-11T13:58:40;4.50;1.00
84335;DHT22;74512;51.190;3.198;2024-01-11T14:01:06;4.60;1.00
84335;DHT22;74512;51.190;3.198;2024-01-11T14:03:33;4.60;1.00
84335;DHT22;74512;51.190;3.198;2024-01-11T14:05:59;4.50;1.00
84335;DHT22;74512;51.190;3.198;2024-01-11T14:08:25;4.60;1.00
84335;DHT22;74512;51.190;3.198;2024-01-11T14:10:51;4.90;1.00
84335;DHT22;74512;51.190;3.198;2024-01-11T14:13:17;4.90;1.00
84335;DHT22;74512;51.190;3.198;2024-01-11T14:15:42;4.90;1.00
84335;DHT22;74512;51.190;3.198;2024-01-11T14:18:08;4.60;1.00
84335;DHT22;74512;51.190;3.198;2024-01-11T14:20:34;4.40;1.00
84335;DHT22;74512;51.190;3.198;2024-01-11T14:23:01;4.60;1.00
84335;DHT22;74512;51.190;3.198;2024-01-11T14:25:26;4.70;1.00
84335;DHT22;74512;51.190;3.198;2024-01-11T14:27:52;4.90;1.00
84335;DHT22;74512;51.190;3.198;2024-01-11T14:30:18;4.60;1.00
84335;DHT22;74512;51.190;3.198;2024-01-11T14:32:44;4.50;1.00
84335;DHT22;74512;51.190;3.198;2024-01-11T14:35:10;4.30;1.00
84335;DHT22;74512;51.190;3.198;2024-01-11T14:37:38;4.40;1.00
84335;DHT22;74512;51.190;3.198;2024-01-11T14:40:07;4.50;1.00
84335;DHT22;74512;51.190;3.198;2024-01-11T14:42:37;4.60;1.00
84335;DHT22;74512;51.190;3.198;2024-01-11T14:45:03;4.60;1.00
84335;DHT22;74512;51.190;3.198;2024-01-11T14:47:29;4.50;1.00
84335;DHT22;74512;51.190;3.198;2024-01-11T14:49:57;4.60;1.00
84335;DHT22;74512;51.190;3.198;2024-01-11T14:52:22;4.40;1.00
84335;DHT22;74512;51.190;3.198;2024-01-11T14:54:48;4.30;1.00
84335;DHT22;74512;51.190;3.198;2024-01-11T14:57:14;4.30;1.00
84335;DHT22;74512;51.190;3.198;2024-01-11T14:59:40;4.30;1.00
84335;DHT22;74512;51.190;3.198;2024-01-11T15:02:06;4.20;1.00
84335;DHT22;74512;51.190;3.198;2024-01-11T15:04:31;4.30;1.00
84335;DHT22;74512;51.190;3.198;2024-01-11T15:06:57;4.30;1.00
84335;DHT22;74512;51.190;3.198;2024-01-11T15:09:23;4.50;1.00
84335;DHT22;74512;51.190;3.198;2024-01-11T15:11:49;4.80;1.00
84335;DHT22;74512;51.190;3.198;2024-01-11T15:14:15;5.10;1.00
84335;DHT22;74512;51.190;3.198;2024-01-11T15:16:42;4.90;1.00
84335;DHT22;74512;51.190;3.198;2024-01-11T15:19:09;4.70;1.00
84335;DHT22;74512;51.190;3.198;2024-01-11T15:21:35;4.70;1.00
84335;DHT22;74512;51.190;3.198;2024-01-11T15:24:01;4.80;1.00
84335;DHT22;74512;51.190;3.198;2024-01-11T15:26:27;5.00;1.00
84335;DHT22;74512;51.190;3.198;2024-01-11T15:28:53;5.00;1.00
84335;DHT22;74512;51.190;3.198;2024-01-11T15:31:19;4.90;1.00
84335;DHT22;74512;51.190;3.198;2024-01-11T15:33:44;4.90;1.00
84335;DHT22;74512;51.190;3.198;2024-01-11T15:36:11;4.80;1.00
84335;DHT22;74512;51.190;3.198;2024-01-11T15:38:37;4.80;1.00
84335;DHT22;74512;51.190;3.198;2024-01-11T15:41:04;4.50;1.00
84335;DHT22;74512;51.190;3.198;2024-01-11T15:43:31;4.40;1.00
84335;DHT22;74512;51.190;3.198;2024-01-11T15:45:56;4.50;1.00
84335;DHT22;74512;51.190;3.198;2024-01-11T15:48:22;4.60;1.00
84335;DHT22;74512;51.190;3.198;2024-01-11T15:50:48;4.70;1.00
84335;DHT22;74512;51.190;3.198;2024-01-11T15:53:13;4.70;1.00
84335;DHT22;74512;51.190;3.198;2024-01-11T15:55:39;4.70;1.00
84335;DHT22;74512;51.190;3.198;2024-01-11T15:58:05;4.70;1.00